Terminal Aerodrome Forecast
Issued by NWS

Home | Current Version | Previous Version | Text Only | Print | Product List | Glossary On
Versions: 1 2 3 4 5 6 7 8 9 10 11 12
000
FTUS43 KPAH 251133
TAFCGI
TAF
KCGI 251133Z 2512/2612 26006KT P6SM SKC
     FM251500 28008G14KT P6SM FEW050
     FM260100 18005KT P6SM FEW250
     FM260600 16006KT P6SM SCT050 BKN180=

USA.gov is the U.S. government's official web portal to all federal, state and local government web resources and services.